createdAt,value
2023-01-20T00:04:09.062Z,99686.43
2023-01-20T00:09:17.017Z,99690.90
2023-01-20T00:14:25.242Z,99700.02
2023-01-20T00:19:28.999Z,99706.73
2023-01-20T00:24:43.886Z,99716.52
2023-01-20T00:29:56.555Z,99714.98
2023-01-20T00:35:11.136Z,99721.34
2023-01-20T00:40:15.104Z,99732.17
2023-01-20T00:45:20.977Z,99744.54
2023-01-20T00:50:44.858Z,99745.92
2023-01-20T00:55:51.360Z,99749.70
2023-01-20T01:00:58.930Z,99758.81
2023-01-20T01:06:21.323Z,99769.64
2023-01-20T01:11:27.104Z,99768.42
2023-01-20T01:16:30.386Z,99769.98
2023-01-20T01:21:33.918Z,99768.77
2023-01-20T01:26:37.389Z,99781.48
2023-01-20T01:31:40.970Z,99788.55
2023-01-20T01:36:44.583Z,99790.95
2023-01-20T01:41:51.317Z,99790.27
2023-01-20T01:47:06.006Z,99788.36
2023-01-20T01:52:10.256Z,99792.50
2023-01-20T01:57:16.662Z,99791.80
2023-01-20T02:02:23.957Z,99792.33
2023-01-20T02:08:14.722Z,99783.73
2023-01-20T02:13:25.056Z,99784.77
2023-01-20T02:18:41.538Z,99793.52
2023-01-20T02:24:52.385Z,99806.06
2023-01-20T02:30:38.855Z,99796.96
2023-01-20T02:36:05.008Z,99805.38
2023-01-20T02:41:21.125Z,99809.49
2023-01-20T02:47:12.319Z,99805.55
2023-01-20T02:52:23.114Z,99808.99
2023-01-20T02:57:41.991Z,99798.68
2023-01-20T03:02:51.123Z,99798.67
2023-01-20T03:08:16.635Z,99793.19
2023-01-20T03:13:32.790Z,99807.44
2023-01-20T03:18:38.175Z,99816.20
2023-01-20T03:24:00.861Z,99814.99
2023-01-20T03:29:09.660Z,99825.83
2023-01-20T03:34:19.774Z,99830.64
2023-01-20T03:40:01.985Z,99830.64
2023-01-20T03:46:06.603Z,99834.25
2023-01-20T03:52:04.877Z,99860.70
2023-01-20T03:57:53.275Z,99863.12
2023-01-20T04:03:21.538Z,99870.51
2023-01-20T04:08:33.776Z,99878.40
2023-01-20T04:13:40.072Z,99885.10
2023-01-20T04:18:47.644Z,99889.05
2023-01-20T04:24:36.315Z,99892.84
2023-01-20T04:30:00.050Z,99897.98
2023-01-20T04:35:06.630Z,99907.10
2023-01-20T04:40:14.165Z,99914.84
2023-01-20T04:45:17.867Z,99928.94
2023-01-20T04:50:21.608Z,99940.96
2023-01-20T04:55:26.794Z,99948.54
2023-01-20T05:00:58.056Z,99961.43
2023-01-20T05:06:01.765Z,99966.58
2023-01-20T05:11:05.871Z,99966.75
2023-01-20T05:16:13.167Z,99966.91
2023-01-20T05:21:19.027Z,99969.32
2023-01-20T05:26:26.581Z,99981.52
2023-01-20T05:31:43.744Z,99988.41
2023-01-20T05:36:59.537Z,99993.91
2023-01-20T05:42:03.019Z,99989.44
2023-01-20T05:47:06.546Z,99996.30
2023-01-20T05:52:32.519Z,100013.33
2023-01-20T05:57:39.095Z,100026.77
2023-01-20T06:02:42.550Z,100052.39
2023-01-20T06:07:46.108Z,100065.98
2023-01-20T06:13:05.044Z,100073.70
2023-01-20T06:18:12.988Z,100084.55
2023-01-20T06:23:28.615Z,100098.11
2023-01-20T06:28:36.010Z,100108.61
2023-01-20T06:33:49.471Z,100117.23
2023-01-20T06:39:15.810Z,100122.21
2023-01-20T06:44:21.747Z,100122.23
2023-01-20T06:49:33.640Z,100134.96
2023-01-20T06:54:37.163Z,100135.67
2023-01-20T07:00:00.716Z,100143.07
2023-01-20T07:05:23.245Z,100146.35
2023-01-20T07:10:32.890Z,100148.76
2023-01-20T07:15:36.429Z,100159.27
2023-01-20T07:20:40.404Z,100167.37
2023-01-20T07:25:44.019Z,100174.77
2023-01-20T07:30:47.494Z,100173.90
2023-01-20T07:35:53.390Z,100175.27
2023-01-20T07:41:06.007Z,100180.27
2023-01-20T07:46:15.357Z,100182.52
2023-01-20T07:51:19.160Z,100184.27
2023-01-20T07:56:28.199Z,100183.05
2023-01-20T08:01:33.167Z,100186.32
2023-01-20T08:06:36.502Z,100187.69
2023-01-20T08:11:50.020Z,100185.96
2023-01-20T08:16:53.958Z,100190.61
2023-01-20T08:22:19.868Z,100192.85
2023-01-20T08:27:23.095Z,100193.03
2023-01-20T08:32:26.613Z,100192.69
2023-01-20T08:37:33.398Z,100193.02
2023-01-20T08:42:38.259Z,100195.25
2023-01-20T08:47:46.047Z,100202.98
2023-01-20T08:52:49.410Z,100211.23
2023-01-20T08:57:55.598Z,100216.55
2023-01-20T09:03:02.231Z,100217.59
2023-01-20T09:08:05.931Z,100210.37
2023-01-20T09:13:09.800Z,100210.20
2023-01-20T09:18:13.188Z,100210.71
2023-01-20T09:23:26.917Z,100222.41
2023-01-20T09:28:49.158Z,100226.22
2023-01-20T09:33:56.120Z,100234.84
2023-01-20T09:39:21.642Z,100245.52
2023-01-20T09:45:06.107Z,100253.98
2023-01-20T09:50:39.548Z,100258.30
2023-01-20T09:55:54.082Z,100265.54
2023-01-20T10:01:44.012Z,100267.42
2023-01-20T10:06:55.054Z,100263.14
2023-01-20T10:12:17.948Z,100259.88
2023-01-20T10:17:28.350Z,100252.31
2023-01-20T10:23:00.810Z,100252.31
2023-01-20T10:28:21.256Z,100257.48
2023-01-20T10:33:32.995Z,100265.58
2023-01-20T10:38:48.121Z,100265.06
2023-01-20T10:43:51.646Z,100275.21
2023-01-20T10:49:21.202Z,100277.98
2023-01-20T10:54:51.652Z,100287.62
2023-01-20T11:00:00.196Z,100294.67
2023-01-20T11:05:43.760Z,100293.14
2023-01-20T11:11:01.493Z,100291.59
2023-01-20T11:16:29.109Z,100290.55
2023-01-20T11:21:37.070Z,100282.80
2023-01-20T11:26:40.543Z,100280.73
2023-01-20T11:31:58.201Z,100290.05
2023-01-20T11:37:28.223Z,100292.65
2023-01-20T11:42:45.024Z,100297.66
2023-01-20T11:48:22.649Z,100309.41
2023-01-20T11:53:41.667Z,100316.13
2023-01-20T11:59:40.220Z,100319.41
2023-01-20T12:05:31.527Z,100312.49
2023-01-20T12:10:47.944Z,100317.85
2023-01-20T12:16:04.409Z,100320.42
2023-01-20T12:21:37.845Z,100324.56
2023-01-20T12:26:43.712Z,100331.79
2023-01-20T12:31:57.834Z,100335.39
2023-01-20T12:37:42.260Z,100340.73
2023-01-20T12:43:18.510Z,100341.23
2023-01-20T12:48:34.038Z,100348.48
2023-01-20T12:53:56.455Z,100341.05
2023-01-20T12:59:35.794Z,100345.51
2023-01-20T13:05:09.651Z,100354.25
2023-01-20T13:10:34.616Z,100353.21
2023-01-20T13:15:45.403Z,100353.90
2023-01-20T13:20:49.057Z,100359.23
2023-01-20T13:25:53.391Z,100363.36
2023-01-20T13:31:01.362Z,100361.45
2023-01-20T13:36:16.381Z,100356.09
2023-01-20T13:41:52.695Z,100354.36
2023-01-20T13:46:56.299Z,100347.83
2023-01-20T13:52:03.228Z,100350.08
2023-01-20T13:57:44.860Z,100343.55
2023-01-20T14:02:50.073Z,100334.08
2023-01-20T14:07:53.587Z,100349.01
2023-01-20T14:12:57.001Z,100358.30
2023-01-20T14:18:01.319Z,100367.39
2023-01-20T14:23:39.647Z,100375.27
2023-01-20T14:28:55.568Z,100385.93
2023-01-20T14:34:03.784Z,100396.08
2023-01-20T14:39:20.694Z,100402.42
2023-01-20T14:44:26.861Z,100409.48
2023-01-20T14:49:36.244Z,100408.59
2023-01-20T14:54:44.860Z,100415.41
2023-01-20T15:00:11.723Z,100436.70
2023-01-20T15:05:36.557Z,100452.65
2023-01-20T15:11:45.199Z,100456.58
2023-01-20T15:16:50.759Z,100465.06
2023-01-20T15:22:21.087Z,100453.92
2023-01-20T15:27:31.700Z,100450.33
2023-01-20T15:33:25.476Z,100461.31
2023-01-20T15:38:33.910Z,100455.74
2023-01-20T15:43:42.545Z,100463.13
2023-01-20T15:48:51.308Z,100470.02
2023-01-20T15:53:59.033Z,100471.06
2023-01-20T15:59:02.861Z,100471.42
2023-01-20T16:04:10.319Z,100467.12
2023-01-20T16:09:37.373Z,100462.46
2023-01-20T16:14:41.538Z,100460.77
2023-01-20T16:19:45.102Z,100464.38
2023-01-20T16:24:49.415Z,100471.27
2023-01-20T16:29:53.319Z,100480.39
2023-01-20T16:34:56.556Z,100484.70
2023-01-20T16:40:00.094Z,100486.36
2023-01-20T16:45:03.946Z,100497.29
2023-01-20T16:50:07.347Z,100509.98
2023-01-20T16:55:13.380Z,100519.23
2023-01-20T17:00:18.986Z,100522.12
2023-01-20T17:05:25.781Z,100524.17
2023-01-20T17:10:32.596Z,100525.48
2023-01-20T17:15:37.339Z,100530.27
2023-01-20T17:20:40.747Z,100538.51
2023-01-20T17:25:43.956Z,100535.45
2023-01-20T17:30:47.965Z,100537.98
2023-01-20T17:36:04.067Z,100545.35
2023-01-20T17:41:08.558Z,100548.59
2023-01-20T17:46:31.004Z,100546.89
2023-01-20T17:51:34.511Z,100559.45
2023-01-20T17:56:38.434Z,100565.08
2023-01-20T18:01:42.105Z,100568.17
2023-01-20T18:06:45.654Z,100564.07
2023-01-20T18:11:49.003Z,100559.96
2023-01-20T18:16:53.642Z,100561.19
2023-01-20T18:21:56.989Z,100561.38
2023-01-20T18:27:00.269Z,100559.80
2023-01-20T18:32:04.809Z,100564.09
2023-01-20T18:37:08.241Z,100564.78
2023-01-20T18:42:11.639Z,100569.95
2023-01-20T18:47:15.113Z,100570.29
2023-01-20T18:52:19.103Z,100574.42
2023-01-20T18:57:25.059Z,100576.64
2023-01-20T19:02:28.863Z,100579.05
2023-01-20T19:07:35.522Z,100574.94
2023-01-20T19:12:41.277Z,100572.69
2023-01-20T19:17:44.626Z,100573.02
2023-01-20T19:22:48.300Z,100582.14
2023-01-20T19:27:51.731Z,100581.84
2023-01-20T19:32:55.108Z,100579.61
2023-01-20T19:37:58.621Z,100581.35
2023-01-20T19:43:42.624Z,100581.89
2023-01-20T19:48:46.272Z,100575.89
2023-01-20T19:53:53.792Z,100580.70
2023-01-20T19:58:58.241Z,100575.39
2023-01-20T20:04:13.099Z,100576.23
2023-01-20T20:09:21.419Z,100567.46
2023-01-20T20:14:27.397Z,100566.79
2023-01-20T20:19:30.760Z,100567.84
2023-01-20T20:24:34.445Z,100559.06
2023-01-20T20:29:37.732Z,100560.10
2023-01-20T20:34:41.079Z,100557.85
2023-01-20T20:39:44.443Z,100547.39
2023-01-20T20:44:47.809Z,100542.60
2023-01-20T20:49:51.060Z,100533.17
2023-01-20T20:54:56.427Z,100538.30
2023-01-20T20:59:59.759Z,100535.71
2023-01-20T21:05:03.316Z,100530.73
2023-01-20T21:10:07.491Z,100539.85
2023-01-20T21:15:34.486Z,100550.70
2023-01-20T21:20:37.913Z,100549.83
2023-01-20T21:25:41.160Z,100552.59
2023-01-20T21:30:44.588Z,100536.76
2023-01-20T21:35:48.377Z,100534.66
2023-01-20T21:41:01.563Z,100537.73
2023-01-20T21:46:05.089Z,100539.08
2023-01-20T21:51:30.460Z,100532.87
2023-01-20T21:56:33.763Z,100533.89
2023-01-20T22:01:37.813Z,100532.50
2023-01-20T22:06:44.919Z,100530.39
2023-01-20T22:11:49.033Z,100528.80
2023-01-20T22:16:52.216Z,100513.83
2023-01-20T22:21:59.529Z,100515.19
2023-01-20T22:27:03.257Z,100513.48
2023-01-20T22:32:06.651Z,100510.89
2023-01-20T22:37:09.945Z,100502.27
2023-01-20T22:42:13.314Z,100491.94
2023-01-20T22:47:16.997Z,100482.66
2023-01-20T22:52:20.586Z,100476.96
2023-01-20T22:57:24.146Z,100464.77
2023-01-20T23:02:30.186Z,100467.13
2023-01-20T23:07:35.161Z,100463.30
2023-01-20T23:12:38.452Z,100459.90
2023-01-20T23:17:41.805Z,100458.54
2023-01-20T23:22:45.201Z,100458.88
2023-01-20T23:27:48.483Z,100466.42
2023-01-20T23:32:51.746Z,100453.16
2023-01-20T23:37:55.345Z,100448.84
2023-01-20T23:42:58.649Z,100442.64
2023-01-20T23:48:05.529Z,100445.73
2023-01-20T23:53:24.022Z,100441.79
2023-01-20T23:58:27.777Z,100441.96
